sensor_id;sensor_type;location;lat;lon;timestamp;pressure;altitude;pressure_sealevel;temperature;humidity
74334;BME280;62753;40.394;-80.022;2023-05-20T00:02:17;97399.73;;;30.38;27.83
74334;BME280;62753;40.394;-80.022;2023-05-20T00:04:42;97402.10;;;30.17;28.17
74334;BME280;62753;40.394;-80.022;2023-05-20T00:07:07;97400.58;;;29.86;28.27
74334;BME280;62753;40.394;-80.022;2023-05-20T00:09:32;97395.67;;;29.84;28.63
74334;BME280;62753;40.394;-80.022;2023-05-20T00:11:58;97398.15;;;29.94;28.22
74334;BME280;62753;40.394;-80.022;2023-05-20T00:14:24;97397.71;;;29.96;28.39
74334;BME280;62753;40.394;-80.022;2023-05-20T00:16:49;97396.65;;;29.79;28.34
74334;BME280;62753;40.394;-80.022;2023-05-20T00:19:14;97396.63;;;29.70;28.62
74334;BME280;62753;40.394;-80.022;2023-05-20T00:21:40;97394.32;;;29.83;28.12
74334;BME280;62753;40.394;-80.022;2023-05-20T00:24:05;97387.29;;;29.91;28.56
74334;BME280;62753;40.394;-80.022;2023-05-20T00:26:30;97385.43;;;30.36;28.27
74334;BME280;62753;40.394;-80.022;2023-05-20T00:28:56;97385.65;;;29.69;28.58
74334;BME280;62753;40.394;-80.022;2023-05-20T00:31:21;97386.88;;;29.71;28.87
74334;BME280;62753;40.394;-80.022;2023-05-20T00:33:46;97388.39;;;29.42;28.74
74334;BME280;62753;40.394;-80.022;2023-05-20T00:36:11;97390.87;;;29.21;29.34
74334;BME280;62753;40.394;-80.022;2023-05-20T00:38:37;97388.00;;;29.35;29.32
74334;BME280;62753;40.394;-80.022;2023-05-20T00:41:03;97386.32;;;29.19;29.49
74334;BME280;62753;40.394;-80.022;2023-05-20T00:43:28;97385.94;;;29.14;29.59
74334;BME280;62753;40.394;-80.022;2023-05-20T00:45:54;97383.01;;;28.53;29.74
74334;BME280;62753;40.394;-80.022;2023-05-20T00:48:20;97383.68;;;29.02;29.90
74334;BME280;62753;40.394;-80.022;2023-05-20T00:50:45;97387.88;;;28.95;29.93
74334;BME280;62753;40.394;-80.022;2023-05-20T00:53:11;97389.51;;;28.94;29.55
74334;BME280;62753;40.394;-80.022;2023-05-20T00:55:37;97387.20;;;28.97;29.48
74334;BME280;62753;40.394;-80.022;2023-05-20T00:58:02;97385.14;;;28.68;29.56
74334;BME280;62753;40.394;-80.022;2023-05-20T01:00:27;97385.10;;;29.10;29.44
74334;BME280;62753;40.394;-80.022;2023-05-20T01:02:54;97389.01;;;29.24;29.02
74334;BME280;62753;40.394;-80.022;2023-05-20T01:05:19;97386.51;;;29.33;28.89
74334;BME280;62753;40.394;-80.022;2023-05-20T01:07:45;97386.19;;;29.29;29.20
74334;BME280;62753;40.394;-80.022;2023-05-20T01:10:10;97386.04;;;29.13;29.11
74334;BME280;62753;40.394;-80.022;2023-05-20T01:12:38;97388.27;;;29.23;29.22
74334;BME280;62753;40.394;-80.022;2023-05-20T01:15:04;97388.72;;;29.27;29.38
74334;BME280;62753;40.394;-80.022;2023-05-20T01:17:30;97388.55;;;29.19;29.26
74334;BME280;62753;40.394;-80.022;2023-05-20T01:19:55;97387.59;;;29.27;29.01
74334;BME280;62753;40.394;-80.022;2023-05-20T01:22:18;97382.18;;;28.96;29.18
74334;BME280;62753;40.394;-80.022;2023-05-20T01:24:45;97381.95;;;29.15;29.89
74334;BME280;62753;40.394;-80.022;2023-05-20T01:27:10;97380.77;;;29.38;29.68
74334;BME280;62753;40.394;-80.022;2023-05-20T01:29:35;97375.33;;;29.54;29.27
74334;BME280;62753;40.394;-80.022;2023-05-20T01:32:01;97375.51;;;29.28;29.59
74334;BME280;62753;40.394;-80.022;2023-05-20T01:34:26;97382.12;;;29.30;30.12
74334;BME280;62753;40.394;-80.022;2023-05-20T01:36:52;97384.97;;;28.87;30.03
74334;BME280;62753;40.394;-80.022;2023-05-20T01:39:17;97381.87;;;29.89;29.07
74334;BME280;62753;40.394;-80.022;2023-05-20T01:41:43;97385.84;;;29.18;29.87
74334;BME280;62753;40.394;-80.022;2023-05-20T01:44:08;97381.74;;;29.38;29.67
74334;BME280;62753;40.394;-80.022;2023-05-20T01:46:33;97384.25;;;28.94;30.25
74334;BME280;62753;40.394;-80.022;2023-05-20T01:48:58;97385.33;;;29.28;30.14
74334;BME280;62753;40.394;-80.022;2023-05-20T01:51:24;97381.59;;;29.20;30.30
74334;BME280;62753;40.394;-80.022;2023-05-20T01:53:49;97382.42;;;29.15;29.57
74334;BME280;62753;40.394;-80.022;2023-05-20T01:56:14;97386.54;;;29.39;29.81
74334;BME280;62753;40.394;-80.022;2023-05-20T01:58:39;97382.50;;;28.92;30.21
74334;BME280;62753;40.394;-80.022;2023-05-20T02:01:06;97381.16;;;28.61;30.33
74334;BME280;62753;40.394;-80.022;2023-05-20T02:03:30;97380.09;;;28.42;29.99
74334;BME280;62753;40.394;-80.022;2023-05-20T02:05:56;97382.65;;;27.80;30.25
74334;BME280;62753;40.394;-80.022;2023-05-20T02:08:22;97382.03;;;26.86;31.45
74334;BME280;62753;40.394;-80.022;2023-05-20T02:10:48;97384.37;;;25.67;32.06
74334;BME280;62753;40.394;-80.022;2023-05-20T02:13:13;97380.62;;;25.44;31.91
74334;BME280;62753;40.394;-80.022;2023-05-20T02:15:40;97385.64;;;26.12;33.05
74334;BME280;62753;40.394;-80.022;2023-05-20T02:18:04;97387.34;;;26.15;32.38
74334;BME280;62753;40.394;-80.022;2023-05-20T02:20:30;97384.83;;;26.05;32.26
74334;BME280;62753;40.394;-80.022;2023-05-20T02:22:55;97379.97;;;26.44;31.67
74334;BME280;62753;40.394;-80.022;2023-05-20T02:25:20;97381.09;;;26.34;31.55
74334;BME280;62753;40.394;-80.022;2023-05-20T02:27:46;97378.44;;;25.87;31.74
74334;BME280;62753;40.394;-80.022;2023-05-20T02:30:13;97381.27;;;25.56;33.03
74334;BME280;62753;40.394;-80.022;2023-05-20T02:32:38;97378.00;;;25.52;32.81
74334;BME280;62753;40.394;-80.022;2023-05-20T02:35:03;97380.84;;;25.01;33.02
74334;BME280;62753;40.394;-80.022;2023-05-20T02:37:29;97379.92;;;24.82;34.15
74334;BME280;62753;40.394;-80.022;2023-05-20T02:39:54;97380.76;;;25.35;33.46
74334;BME280;62753;40.394;-80.022;2023-05-20T02:42:19;97373.53;;;25.24;33.03
74334;BME280;62753;40.394;-80.022;2023-05-20T02:44:45;97374.73;;;25.98;31.77
74334;BME280;62753;40.394;-80.022;2023-05-20T02:47:10;97376.98;;;25.35;32.52
74334;BME280;62753;40.394;-80.022;2023-05-20T02:49:36;97377.77;;;25.54;32.28
74334;BME280;62753;40.394;-80.022;2023-05-20T02:52:01;97379.91;;;24.78;32.86
74334;BME280;62753;40.394;-80.022;2023-05-20T02:54:27;97376.64;;;24.64;33.40
74334;BME280;62753;40.394;-80.022;2023-05-20T02:56:53;97376.72;;;24.32;34.23
74334;BME280;62753;40.394;-80.022;2023-05-20T02:59:18;97377.60;;;24.63;34.30
74334;BME280;62753;40.394;-80.022;2023-05-20T03:01:44;97372.02;;;24.19;33.93
74334;BME280;62753;40.394;-80.022;2023-05-20T03:04:09;97369.32;;;24.08;34.31
74334;BME280;62753;40.394;-80.022;2023-05-20T03:06:34;97366.94;;;23.73;34.72
74334;BME280;62753;40.394;-80.022;2023-05-20T03:09:00;97366.26;;;24.38;34.58
74334;BME280;62753;40.394;-80.022;2023-05-20T03:11:26;97366.50;;;24.23;33.94
74334;BME280;62753;40.394;-80.022;2023-05-20T03:13:52;97368.94;;;24.30;34.13
74334;BME280;62753;40.394;-80.022;2023-05-20T03:16:17;97364.97;;;24.65;33.64
74334;BME280;62753;40.394;-80.022;2023-05-20T03:18:42;97363.39;;;24.33;33.91
74334;BME280;62753;40.394;-80.022;2023-05-20T03:21:07;97356.36;;;24.12;33.88
74334;BME280;62753;40.394;-80.022;2023-05-20T03:23:33;97359.60;;;22.91;36.27
74334;BME280;62753;40.394;-80.022;2023-05-20T03:25:59;97358.39;;;23.47;35.65
74334;BME280;62753;40.394;-80.022;2023-05-20T03:28:24;97356.00;;;23.69;35.45
74334;BME280;62753;40.394;-80.022;2023-05-20T03:30:49;97351.68;;;23.23;35.17
74334;BME280;62753;40.394;-80.022;2023-05-20T03:33:15;97353.02;;;22.99;36.23
74334;BME280;62753;40.394;-80.022;2023-05-20T03:35:40;97351.62;;;22.83;36.39
74334;BME280;62753;40.394;-80.022;2023-05-20T03:38:05;97351.64;;;22.94;36.33
74334;BME280;62753;40.394;-80.022;2023-05-20T03:40:31;97352.68;;;23.22;35.67
74334;BME280;62753;40.394;-80.022;2023-05-20T03:42:56;97351.20;;;23.31;35.13
74334;BME280;62753;40.394;-80.022;2023-05-20T03:45:22;97344.92;;;23.39;35.32
74334;BME280;62753;40.394;-80.022;2023-05-20T03:47:47;97350.74;;;22.89;35.46
74334;BME280;62753;40.394;-80.022;2023-05-20T03:50:13;97346.55;;;22.88;36.29
74334;BME280;62753;40.394;-80.022;2023-05-20T03:52:39;97343.07;;;22.48;36.82
74334;BME280;62753;40.394;-80.022;2023-05-20T03:55:05;97341.22;;;22.62;36.02
74334;BME280;62753;40.394;-80.022;2023-05-20T03:57:30;97340.06;;;22.62;36.39
74334;BME280;62753;40.394;-80.022;2023-05-20T03:59:55;97340.57;;;22.58;36.21
74334;BME280;62753;40.394;-80.022;2023-05-20T04:02:20;97341.18;;;23.07;35.78
74334;BME280;62753;40.394;-80.022;2023-05-20T04:04:47;97336.86;;;23.68;34.43
74334;BME280;62753;40.394;-80.022;2023-05-20T04:07:12;97334.15;;;23.45;35.19
74334;BME280;62753;40.394;-80.022;2023-05-20T04:09:38;97331.10;;;23.17;35.22
74334;BME280;62753;40.394;-80.022;2023-05-20T04:12:04;97331.91;;;22.69;36.33
74334;BME280;62753;40.394;-80.022;2023-05-20T04:14:29;97329.49;;;22.49;36.96
74334;BME280;62753;40.394;-80.022;2023-05-20T04:16:55;97326.16;;;22.94;35.72
74334;BME280;62753;40.394;-80.022;2023-05-20T04:19:20;97324.23;;;22.13;36.24
74334;BME280;62753;40.394;-80.022;2023-05-20T04:21:45;97321.59;;;22.69;36.34
74334;BME280;62753;40.394;-80.022;2023-05-20T04:24:10;97315.06;;;22.41;36.62
74334;BME280;62753;40.394;-80.022;2023-05-20T04:26:37;97314.44;;;22.59;37.22
74334;BME280;62753;40.394;-80.022;2023-05-20T04:29:01;97314.31;;;22.73;36.60
74334;BME280;62753;40.394;-80.022;2023-05-20T04:31:27;97312.61;;;22.71;36.00
74334;BME280;62753;40.394;-80.022;2023-05-20T04:33:52;97309.31;;;22.30;36.73
74334;BME280;62753;40.394;-80.022;2023-05-20T04:36:17;97301.05;;;23.20;35.29
74334;BME280;62753;40.394;-80.022;2023-05-20T04:38:43;97298.87;;;22.96;35.72
74334;BME280;62753;40.394;-80.022;2023-05-20T04:41:08;97294.68;;;22.54;36.66
74334;BME280;62753;40.394;-80.022;2023-05-20T04:43:34;97292.87;;;21.93;37.84
74334;BME280;62753;40.394;-80.022;2023-05-20T04:45:59;97289.03;;;21.46;38.49
74334;BME280;62753;40.394;-80.022;2023-05-20T04:48:24;97288.40;;;20.88;39.83
74334;BME280;62753;40.394;-80.022;2023-05-20T04:50:49;97286.07;;;21.27;38.46
74334;BME280;62753;40.394;-80.022;2023-05-20T04:53:15;97285.83;;;21.89;38.78
74334;BME280;62753;40.394;-80.022;2023-05-20T04:55:40;97290.60;;;21.79;38.52
74334;BME280;62753;40.394;-80.022;2023-05-20T04:58:06;97292.80;;;22.05;37.56
74334;BME280;62753;40.394;-80.022;2023-05-20T05:00:32;97301.91;;;21.94;37.93
74334;BME280;62753;40.394;-80.022;2023-05-20T05:02:58;97300.86;;;22.22;37.08
74334;BME280;62753;40.394;-80.022;2023-05-20T05:05:23;97304.58;;;21.93;37.90
74334;BME280;62753;40.394;-80.022;2023-05-20T05:07:49;97302.70;;;21.88;37.83
74334;BME280;62753;40.394;-80.022;2023-05-20T05:10:14;97302.50;;;22.59;37.22
74334;BME280;62753;40.394;-80.022;2023-05-20T05:12:39;97300.23;;;22.25;37.25
74334;BME280;62753;40.394;-80.022;2023-05-20T05:15:06;97292.87;;;22.69;36.42
74334;BME280;62753;40.394;-80.022;2023-05-20T05:17:30;97292.00;;;22.31;36.88
74334;BME280;62753;40.394;-80.022;2023-05-20T05:19:56;97294.89;;;22.13;37.69
74334;BME280;62753;40.394;-80.022;2023-05-20T05:22:21;97294.27;;;23.45;35.66
74334;BME280;62753;40.394;-80.022;2023-05-20T05:24:47;97293.36;;;22.66;35.79
74334;BME280;62753;40.394;-80.022;2023-05-20T05:27:12;97295.25;;;23.07;36.14
74334;BME280;62753;40.394;-80.022;2023-05-20T05:29:37;97283.34;;;23.19;35.21
74334;BME280;62753;40.394;-80.022;2023-05-20T05:32:04;97284.34;;;22.99;35.64
74334;BME280;62753;40.394;-80.022;2023-05-20T05:34:28;97285.74;;;23.63;34.93
74334;BME280;62753;40.394;-80.022;2023-05-20T05:36:53;97275.07;;;23.54;34.70
74334;BME280;62753;40.394;-80.022;2023-05-20T05:39:19;97275.43;;;23.81;34.09
74334;BME280;62753;40.394;-80.022;2023-05-20T05:41:45;97275.96;;;22.79;36.26
74334;BME280;62753;40.394;-80.022;2023-05-20T05:44:10;97270.27;;;23.45;35.13
74334;BME280;62753;40.394;-80.022;2023-05-20T05:46:35;97266.68;;;22.88;35.65
74334;BME280;62753;40.394;-80.022;2023-05-20T05:49:01;97259.42;;;22.30;36.27
74334;BME280;62753;40.394;-80.022;2023-05-20T05:51:27;97260.86;;;22.56;36.61
74334;BME280;62753;40.394;-80.022;2023-05-20T05:53:52;97264.62;;;22.65;36.17
74334;BME280;62753;40.394;-80.022;2023-05-20T05:56:18;97268.44;;;22.53;36.36
74334;BME280;62753;40.394;-80.022;2023-05-20T05:58:43;97270.19;;;23.36;34.96
74334;BME280;62753;40.394;-80.022;2023-05-20T06:01:09;97268.61;;;23.55;34.52
74334;BME280;62753;40.394;-80.022;2023-05-20T06:03:34;97266.94;;;23.39;34.81
74334;BME280;62753;40.394;-80.022;2023-05-20T06:05:59;97262.70;;;22.61;36.32
74334;BME280;62753;40.394;-80.022;2023-05-20T06:08:25;97258.60;;;23.53;35.55
74334;BME280;62753;40.394;-80.022;2023-05-20T06:10:50;97255.00;;;23.20;35.16
74334;BME280;62753;40.394;-80.022;2023-05-20T06:13:16;97252.53;;;22.70;36.15
74334;BME280;62753;40.394;-80.022;2023-05-20T06:15:41;97246.72;;;22.18;37.09
74334;BME280;62753;40.394;-80.022;2023-05-20T06:18:07;97247.91;;;22.35;37.09
74334;BME280;62753;40.394;-80.022;2023-05-20T06:20:32;97245.96;;;23.74;35.08
74334;BME280;62753;40.394;-80.022;2023-05-20T06:22:57;97250.12;;;22.40;37.20
74334;BME280;62753;40.394;-80.022;2023-05-20T06:25:23;97246.36;;;21.82;37.99
74334;BME280;62753;40.394;-80.022;2023-05-20T06:27:49;97242.91;;;21.78;38.05
74334;BME280;62753;40.394;-80.022;2023-05-20T06:30:14;97232.62;;;21.88;38.30
74334;BME280;62753;40.394;-80.022;2023-05-20T06:32:40;97239.52;;;21.73;37.88
74334;BME280;62753;40.394;-80.022;2023-05-20T06:35:06;97224.78;;;22.41;36.42
74334;BME280;62753;40.394;-80.022;2023-05-20T06:37:30;97218.66;;;22.08;38.03
74334;BME280;62753;40.394;-80.022;2023-05-20T06:39:56;97215.92;;;21.72;37.92
74334;BME280;62753;40.394;-80.022;2023-05-20T06:42:21;97211.75;;;22.74;36.68
74334;BME280;62753;40.394;-80.022;2023-05-20T06:44:46;97209.39;;;22.36;37.13
74334;BME280;62753;40.394;-80.022;2023-05-20T06:47:14;97211.13;;;22.28;37.32
74334;BME280;62753;40.394;-80.022;2023-05-20T06:49:36;97210.25;;;21.11;39.54
74334;BME280;62753;40.394;-80.022;2023-05-20T06:52:03;97206.51;;;21.10;41.03
74334;BME280;62753;40.394;-80.022;2023-05-20T06:54:28;97206.72;;;20.43;40.51
74334;BME280;62753;40.394;-80.022;2023-05-20T06:56:54;97197.46;;;21.46;38.71
74334;BME280;62753;40.394;-80.022;2023-05-20T06:59:19;97197.93;;;21.36;39.28
74334;BME280;62753;40.394;-80.022;2023-05-20T07:01:44;97195.83;;;22.05;38.00
74334;BME280;62753;40.394;-80.022;2023-05-20T07:04:10;97188.87;;;21.92;37.70
74334;BME280;62753;40.394;-80.022;2023-05-20T07:06:35;97183.83;;;22.20;36.81
74334;BME280;62753;40.394;-80.022;2023-05-20T07:09:00;97183.45;;;21.63;37.93
74334;BME280;62753;40.394;-80.022;2023-05-20T07:11:26;97181.86;;;21.83;37.96
74334;BME280;62753;40.394;-80.022;2023-05-20T07:13:52;97169.95;;;21.90;37.43
74334;BME280;62753;40.394;-80.022;2023-05-20T07:16:16;97167.73;;;21.93;37.73
74334;BME280;62753;40.394;-80.022;2023-05-20T07:18:41;97161.45;;;22.21;37.09
74334;BME280;62753;40.394;-80.022;2023-05-20T07:21:07;97165.49;;;21.96;37.67
74334;BME280;62753;40.394;-80.022;2023-05-20T07:23:33;97157.66;;;22.21;37.64
74334;BME280;62753;40.394;-80.022;2023-05-20T07:25:58;97155.38;;;21.45;38.19
74334;BME280;62753;40.394;-80.022;2023-05-20T07:28:23;97144.61;;;22.10;37.39
74334;BME280;62753;40.394;-80.022;2023-05-20T07:30:48;97149.02;;;21.24;38.92
74334;BME280;62753;40.394;-80.022;2023-05-20T07:33:14;97146.72;;;21.18;39.19
74334;BME280;62753;40.394;-80.022;2023-05-20T07:35:39;97148.65;;;22.02;37.76
74334;BME280;62753;40.394;-80.022;2023-05-20T07:38:04;97140.13;;;22.14;37.26
74334;BME280;62753;40.394;-80.022;2023-05-20T07:40:30;97140.75;;;21.43;37.89
74334;BME280;62753;40.394;-80.022;2023-05-20T07:42:56;97145.98;;;21.44;37.83
74334;BME280;62753;40.394;-80.022;2023-05-20T07:45:21;97144.56;;;21.80;37.63
74334;BME280;62753;40.394;-80.022;2023-05-20T07:47:46;97139.40;;;21.92;37.16
74334;BME280;62753;40.394;-80.022;2023-05-20T07:50:12;97138.32;;;21.45;38.86
74334;BME280;62753;40.394;-80.022;2023-05-20T07:52:38;97140.95;;;21.58;37.54
74334;BME280;62753;40.394;-80.022;2023-05-20T07:55:03;97137.65;;;21.78;37.96
74334;BME280;62753;40.394;-80.022;2023-05-20T07:57:28;97137.64;;;21.91;38.28
74334;BME280;62753;40.394;-80.022;2023-05-20T07:59:54;97133.90;;;21.09;39.17
74334;BME280;62753;40.394;-80.022;2023-05-20T08:02:19;97136.40;;;20.89;39.42
74334;BME280;62753;40.394;-80.022;2023-05-20T08:04:44;97135.67;;;21.42;38.88
74334;BME280;62753;40.394;-80.022;2023-05-20T08:07:09;97136.32;;;21.04;38.83
74334;BME280;62753;40.394;-80.022;2023-05-20T08:09:35;97133.29;;;21.01;39.44
74334;BME280;62753;40.394;-80.022;2023-05-20T08:12:00;97136.22;;;21.77;37.98
74334;BME280;62753;40.394;-80.022;2023-05-20T08:14:25;97129.05;;;22.04;37.20
74334;BME280;62753;40.394;-80.022;2023-05-20T08:16:50;97128.55;;;21.32;38.72
74334;BME280;62753;40.394;-80.022;2023-05-20T08:19:16;97130.73;;;21.28;38.58
74334;BME280;62753;40.394;-80.022;2023-05-20T08:21:42;97131.27;;;22.23;36.95
74334;BME280;62753;40.394;-80.022;2023-05-20T08:24:08;97125.10;;;22.55;36.25
74334;BME280;62753;40.394;-80.022;2023-05-20T08:26:33;97127.98;;;22.13;36.58
74334;BME280;62753;40.394;-80.022;2023-05-20T08:28:59;97129.89;;;21.80;37.70
74334;BME280;62753;40.394;-80.022;2023-05-20T08:31:24;97127.37;;;22.43;36.45
74334;BME280;62753;40.394;-80.022;2023-05-20T08:33:49;97119.80;;;22.37;36.78
74334;BME280;62753;40.394;-80.022;2023-05-20T08:36:15;97121.39;;;22.45;36.28
74334;BME280;62753;40.394;-80.022;2023-05-20T08:38:40;97118.47;;;22.49;36.59
74334;BME280;62753;40.394;-80.022;2023-05-20T08:41:06;97113.46;;;22.29;36.45
74334;BME280;62753;40.394;-80.022;2023-05-20T08:43:31;97114.13;;;22.48;35.67
74334;BME280;62753;40.394;-80.022;2023-05-20T08:45:56;97109.29;;;22.72;35.49
74334;BME280;62753;40.394;-80.022;2023-05-20T08:48:23;97103.53;;;22.89;35.43
74334;BME280;62753;40.394;-80.022;2023-05-20T08:50:50;97106.39;;;23.29;34.76
74334;BME280;62753;40.394;-80.022;2023-05-20T08:53:13;97106.79;;;22.39;36.26
74334;BME280;62753;40.394;-80.022;2023-05-20T08:55:42;97105.29;;;22.27;36.61
74334;BME280;62753;40.394;-80.022;2023-05-20T08:58:03;97106.13;;;23.29;34.73
74334;BME280;62753;40.394;-80.022;2023-05-20T09:00:28;97104.97;;;22.69;35.22
74334;BME280;62753;40.394;-80.022;2023-05-20T09:02:54;97107.70;;;23.45;34.46
74334;BME280;62753;40.394;-80.022;2023-05-20T09:05:20;97107.33;;;23.80;34.31
74334;BME280;62753;40.394;-80.022;2023-05-20T09:07:45;97099.87;;;23.82;33.78
74334;BME280;62753;40.394;-80.022;2023-05-20T09:10:11;97098.87;;;23.47;33.54
74334;BME280;62753;40.394;-80.022;2023-05-20T09:12:37;97094.41;;;24.16;32.78
74334;BME280;62753;40.394;-80.022;2023-05-20T09:15:02;97096.91;;;24.48;32.78
74334;BME280;62753;40.394;-80.022;2023-05-20T09:17:28;97103.35;;;24.21;32.58
74334;BME280;62753;40.394;-80.022;2023-05-20T09:19:53;97106.78;;;24.46;32.67
74334;BME280;62753;40.394;-80.022;2023-05-20T09:22:22;97112.36;;;24.32;33.01
74334;BME280;62753;40.394;-80.022;2023-05-20T09:24:43;97106.90;;;24.01;33.50
74334;BME280;62753;40.394;-80.022;2023-05-20T09:27:09;97101.45;;;23.40;34.26
74334;BME280;62753;40.394;-80.022;2023-05-20T09:29:34;97095.19;;;23.56;34.00
74334;BME280;62753;40.394;-80.022;2023-05-20T09:32:01;97102.92;;;23.18;34.77
74334;BME280;62753;40.394;-80.022;2023-05-20T09:34:25;97100.75;;;24.00;33.67
74334;BME280;62753;40.394;-80.022;2023-05-20T09:36:50;97108.72;;;23.79;33.47
74334;BME280;62753;40.394;-80.022;2023-05-20T09:39:19;97117.39;;;24.30;32.76
74334;BME280;62753;40.394;-80.022;2023-05-20T09:41:48;97126.81;;;24.33;32.96
74334;BME280;62753;40.394;-80.022;2023-05-20T09:44:06;97125.88;;;24.76;32.80
74334;BME280;62753;40.394;-80.022;2023-05-20T09:46:32;97132.52;;;24.69;32.65
74334;BME280;62753;40.394;-80.022;2023-05-20T09:48:58;97139.06;;;24.23;32.34
74334;BME280;62753;40.394;-80.022;2023-05-20T09:51:23;97153.19;;;24.45;32.70
74334;BME280;62753;40.394;-80.022;2023-05-20T09:53:48;97159.03;;;23.96;33.41
74334;BME280;62753;40.394;-80.022;2023-05-20T09:56:13;97159.48;;;24.42;33.12
74334;BME280;62753;40.394;-80.022;2023-05-20T09:58:39;97153.94;;;24.59;32.91
74334;BME280;62753;40.394;-80.022;2023-05-20T10:01:05;97148.84;;;25.05;32.23
74334;BME280;62753;40.394;-80.022;2023-05-20T10:03:29;97140.61;;;25.16;32.04
74334;BME280;62753;40.394;-80.022;2023-05-20T10:06:08;97135.44;;;25.23;31.04
74334;BME280;62753;40.394;-80.022;2023-05-20T10:08:31;97134.06;;;25.15;31.74
74334;BME280;62753;40.394;-80.022;2023-05-20T10:10:49;97134.00;;;25.83;31.12
74334;BME280;62753;40.394;-80.022;2023-05-20T10:13:19;97137.26;;;25.73;30.88
74334;BME280;62753;40.394;-80.022;2023-05-20T10:15:43;97139.87;;;25.45;31.21
74334;BME280;62753;40.394;-80.022;2023-05-20T10:18:08;97133.87;;;25.06;31.69
74334;BME280;62753;40.394;-80.022;2023-05-20T10:20:26;97136.49;;;25.65;31.42
74334;BME280;62753;40.394;-80.022;2023-05-20T10:22:56;97132.10;;;25.09;32.17
74334;BME280;62753;40.394;-80.022;2023-05-20T10:25:24;97132.17;;;25.36;32.00
74334;BME280;62753;40.394;-80.022;2023-05-20T10:27:43;97131.13;;;25.20;32.02
74334;BME280;62753;40.394;-80.022;2023-05-20T10:30:15;97132.54;;;25.27;32.32
74334;BME280;62753;40.394;-80.022;2023-05-20T10:32:34;97129.45;;;25.45;32.80
74334;BME280;62753;40.394;-80.022;2023-05-20T10:35:01;97133.60;;;25.61;32.25
74334;BME280;62753;40.394;-80.022;2023-05-20T10:37:27;97132.81;;;25.40;32.39
74334;BME280;62753;40.394;-80.022;2023-05-20T10:39:50;97134.99;;;24.79;33.23
74334;BME280;62753;40.394;-80.022;2023-05-20T10:44:42;97128.96;;;25.47;32.32
74334;BME280;62753;40.394;-80.022;2023-05-20T10:47:07;97127.24;;;25.37;32.61
74334;BME280;62753;40.394;-80.022;2023-05-20T10:49:34;97132.60;;;24.42;34.48
74334;BME280;62753;40.394;-80.022;2023-05-20T10:51:59;97132.08;;;24.51;33.56
74334;BME280;62753;40.394;-80.022;2023-05-20T10:54:25;97131.78;;;25.03;32.73
74334;BME280;62753;40.394;-80.022;2023-05-20T10:56:51;97131.55;;;25.04;32.39
74334;BME280;62753;40.394;-80.022;2023-05-20T10:59:16;97127.94;;;24.85;32.68
74334;BME280;62753;40.394;-80.022;2023-05-20T11:01:41;97130.40;;;25.52;32.43
74334;BME280;62753;40.394;-80.022;2023-05-20T11:04:07;97137.16;;;25.45;32.18
74334;BME280;62753;40.394;-80.022;2023-05-20T11:06:32;97135.45;;;25.43;32.74
74334;BME280;62753;40.394;-80.022;2023-05-20T11:09:03;97133.63;;;25.47;32.17
74334;BME280;62753;40.394;-80.022;2023-05-20T11:11:23;97133.90;;;24.98;32.37
74334;BME280;62753;40.394;-80.022;2023-05-20T11:13:51;97131.63;;;25.21;33.26
74334;BME280;62753;40.394;-80.022;2023-05-20T11:16:14;97129.93;;;24.51;33.57
74334;BME280;62753;40.394;-80.022;2023-05-20T11:18:40;97128.60;;;24.84;33.25
74334;BME280;62753;40.394;-80.022;2023-05-20T11:21:05;97126.82;;;25.44;32.47
74334;BME280;62753;40.394;-80.022;2023-05-20T11:23:31;97129.33;;;24.94;33.23
74334;BME280;62753;40.394;-80.022;2023-05-20T11:25:57;97129.33;;;24.81;32.54
74334;BME280;62753;40.394;-80.022;2023-05-20T11:28:22;97124.25;;;25.05;33.01
74334;BME280;62753;40.394;-80.022;2023-05-20T11:30:47;97134.92;;;24.67;33.63
74334;BME280;62753;40.394;-80.022;2023-05-20T11:33:13;97134.53;;;25.34;32.82
74334;BME280;62753;40.394;-80.022;2023-05-20T11:35:43;97129.43;;;25.21;32.78
74334;BME280;62753;40.394;-80.022;2023-05-20T11:38:03;97129.23;;;24.87;33.02
74334;BME280;62753;40.394;-80.022;2023-05-20T11:40:29;97133.36;;;25.34;33.18
74334;BME280;62753;40.394;-80.022;2023-05-20T11:42:54;97131.92;;;25.04;32.53
74334;BME280;62753;40.394;-80.022;2023-05-20T11:45:18;97134.47;;;25.04;33.27
74334;BME280;62753;40.394;-80.022;2023-05-20T11:47:44;97132.70;;;25.05;33.32
74334;BME280;62753;40.394;-80.022;2023-05-20T11:50:11;97133.75;;;25.01;32.88
74334;BME280;62753;40.394;-80.022;2023-05-20T11:52:35;97133.68;;;24.92;33.30
74334;BME280;62753;40.394;-80.022;2023-05-20T11:55:01;97139.33;;;24.65;33.87
74334;BME280;62753;40.394;-80.022;2023-05-20T11:57:26;97137.69;;;24.39;34.20
74334;BME280;62753;40.394;-80.022;2023-05-20T11:59:51;97142.46;;;24.72;33.72
74334;BME280;62753;40.394;-80.022;2023-05-20T12:02:17;97148.60;;;24.70;33.93
74334;BME280;62753;40.394;-80.022;2023-05-20T12:04:43;97154.17;;;24.69;33.87
74334;BME280;62753;40.394;-80.022;2023-05-20T12:07:08;97157.12;;;24.81;34.12
74334;BME280;62753;40.394;-80.022;2023-05-20T12:09:33;97165.46;;;24.04;37.19
74334;BME280;62753;40.394;-80.022;2023-05-20T12:11:58;97173.59;;;23.70;39.51
74334;BME280;62753;40.394;-80.022;2023-05-20T12:14:24;97169.54;;;22.89;41.04
74334;BME280;62753;40.394;-80.022;2023-05-20T12:16:49;97175.48;;;22.19;42.94
74334;BME280;62753;40.394;-80.022;2023-05-20T12:19:14;97174.41;;;22.08;42.91
74334;BME280;62753;40.394;-80.022;2023-05-20T12:21:40;97172.96;;;22.48;43.15
74334;BME280;62753;40.394;-80.022;2023-05-20T12:24:05;97172.93;;;21.97;44.12
74334;BME280;62753;40.394;-80.022;2023-05-20T12:26:31;97163.60;;;22.26;43.84
74334;BME280;62753;40.394;-80.022;2023-05-20T12:28:56;97158.15;;;22.71;44.16
74334;BME280;62753;40.394;-80.022;2023-05-20T12:31:22;97154.12;;;22.74;43.97
74334;BME280;62753;40.394;-80.022;2023-05-20T12:33:48;97145.37;;;22.26;44.01